createdAt,value
2023-04-10T00:01:45.577Z,98110.55
2023-04-10T00:04:16.362Z,98108.08
2023-04-10T00:06:44.722Z,98103.39
2023-04-10T00:09:13.491Z,98099.94
2023-04-10T00:11:41.698Z,98100.45
2023-04-10T00:14:10.842Z,98099.73
2023-04-10T00:16:39.491Z,98096.67
2023-04-10T00:19:08.812Z,98092.64
2023-04-10T00:21:36.932Z,98093.52
2023-04-10T00:24:06.299Z,98092.60
2023-04-10T00:26:37.174Z,98089.91
2023-04-10T00:29:06.781Z,98086.32
2023-04-10T00:31:35.304Z,98084.97
2023-04-10T00:34:03.885Z,98084.40
2023-04-10T00:36:32.373Z,98085.73
2023-04-10T00:39:01.043Z,98083.11
2023-04-10T00:41:30.005Z,98078.17
2023-04-10T00:44:02.409Z,98075.98
2023-04-10T00:46:32.067Z,98071.44
2023-04-10T00:49:00.692Z,98069.98
2023-04-10T00:51:28.843Z,98065.98
2023-04-10T00:53:57.401Z,98067.34
2023-04-10T00:56:26.955Z,98069.47
2023-04-10T00:58:55.195Z,98065.07
2023-04-10T01:01:23.308Z,98064.00
2023-04-10T01:03:54.317Z,98061.32
2023-04-10T01:06:58.168Z,98063.92
2023-04-10T01:09:42.466Z,98066.57
2023-04-10T01:12:35.707Z,98067.55
2023-04-10T01:15:09.562Z,98065.29
2023-04-10T01:17:50.968Z,98063.20
2023-04-10T01:20:34.844Z,98059.41
2023-04-10T01:23:19.401Z,98058.52
2023-04-10T01:26:03.816Z,98060.33
2023-04-10T01:28:57.525Z,98055.33
2023-04-10T01:31:58.346Z,98055.98
2023-04-10T01:34:41.733Z,98052.77
2023-04-10T01:37:20.892Z,98054.02
2023-04-10T01:40:11.695Z,98051.95
2023-04-10T01:42:49.075Z,98052.07
2023-04-10T01:45:22.080Z,98051.27
2023-04-10T01:47:53.349Z,98049.39
2023-04-10T01:50:24.599Z,98048.11
2023-04-10T01:53:01.527Z,98050.33
2023-04-10T01:55:43.870Z,98049.21
2023-04-10T01:58:13.868Z,98057.02
2023-04-10T02:00:45.328Z,98059.64
2023-04-10T02:03:16.462Z,98059.42
2023-04-10T02:06:13.862Z,98056.90
2023-04-10T02:09:11.209Z,98055.13
2023-04-10T02:12:07.748Z,98051.52
2023-04-10T02:14:43.072Z,98051.87
2023-04-10T02:17:18.794Z,98052.38
2023-04-10T02:19:55.275Z,98053.09
2023-04-10T02:22:25.811Z,98050.14
2023-04-10T02:24:54.725Z,98050.61
2023-04-10T02:27:33.047Z,98049.48
2023-04-10T02:30:03.641Z,98048.70
2023-04-10T02:32:35.857Z,98048.91
2023-04-10T02:35:04.618Z,98052.01
2023-04-10T02:37:33.451Z,98050.44
2023-04-10T02:40:02.388Z,98050.88
2023-04-10T02:42:36.657Z,98051.41
2023-04-10T02:45:07.377Z,98051.81
2023-04-10T02:47:41.025Z,98048.29
2023-04-10T02:50:09.727Z,98047.13
2023-04-10T02:52:41.936Z,98045.08
2023-04-10T02:55:10.971Z,98043.79
2023-04-10T02:57:43.012Z,98044.23
2023-04-10T03:00:13.945Z,98044.73
2023-04-10T03:03:08.748Z,98040.89
2023-04-10T03:05:43.684Z,98037.75
2023-04-10T03:08:13.962Z,98038.68
2023-04-10T03:10:48.956Z,98037.02
2023-04-10T03:13:17.381Z,98040.73
2023-04-10T03:15:45.983Z,98036.35
2023-04-10T03:18:15.713Z,98039.46
2023-04-10T03:20:46.465Z,98033.95
2023-04-10T03:23:14.561Z,98035.40
2023-04-10T03:25:43.657Z,98036.50
2023-04-10T03:28:12.500Z,98041.02
2023-04-10T03:30:42.003Z,98042.38
2023-04-10T03:33:12.635Z,98041.38
2023-04-10T03:35:41.205Z,98040.58
2023-04-10T03:38:11.283Z,98039.55
2023-04-10T03:40:39.546Z,98039.98
2023-04-10T03:43:11.965Z,98042.92
2023-04-10T03:45:43.528Z,98044.72
2023-04-10T03:48:12.548Z,98045.01
2023-04-10T03:50:44.369Z,98044.83
2023-04-10T03:53:13.105Z,98043.87
2023-04-10T03:55:41.487Z,98041.89
2023-04-10T03:58:10.947Z,98042.70
2023-04-10T04:00:39.395Z,98041.94
2023-04-10T04:03:20.805Z,98044.36
2023-04-10T04:06:15.440Z,98045.59
2023-04-10T04:08:55.875Z,98047.75
2023-04-10T04:11:46.622Z,98048.63
2023-04-10T04:14:43.768Z,98048.23
2023-04-10T04:17:32.830Z,98046.09
2023-04-10T04:20:11.060Z,98044.63
2023-04-10T04:23:00.953Z,98047.77
2023-04-10T04:25:54.489Z,98044.67
2023-04-10T04:28:25.362Z,98043.55
2023-04-10T04:31:18.353Z,98041.53
2023-04-10T04:34:05.867Z,98041.29
2023-04-10T04:36:47.231Z,98046.58
2023-04-10T04:39:36.738Z,98044.58
2023-04-10T04:42:40.952Z,98045.09
2023-04-10T04:45:46.002Z,98040.11
2023-04-10T04:48:53.240Z,98039.61
2023-04-10T04:51:43.778Z,98038.73
2023-04-10T04:54:30.792Z,98044.73
2023-04-10T04:57:28.879Z,98044.02
2023-04-10T05:00:17.616Z,98042.54
2023-04-10T05:03:15.842Z,98041.45
2023-04-10T05:06:07.483Z,98040.45
2023-04-10T05:08:54.373Z,98040.81
2023-04-10T05:11:46.499Z,98040.66
2023-04-10T05:14:40.963Z,98044.55
2023-04-10T05:17:42.279Z,98040.61
2023-04-10T05:20:31.501Z,98043.55
2023-04-10T05:23:20.501Z,98043.93
2023-04-10T05:26:16.172Z,98044.33
2023-04-10T05:29:03.341Z,98044.59
2023-04-10T05:31:53.319Z,98048.42
2023-04-10T05:34:40.572Z,98046.41
2023-04-10T05:37:13.166Z,98043.99
2023-04-10T05:39:51.531Z,98044.70
2023-04-10T05:42:36.523Z,98042.44
2023-04-10T05:45:19.686Z,98042.66
2023-04-10T05:48:02.636Z,98046.16
2023-04-10T05:50:38.753Z,98044.30
2023-04-10T05:53:34.127Z,98040.92
2023-04-10T05:56:27.183Z,98038.20
2023-04-10T05:59:14.102Z,98037.65
2023-04-10T06:02:06.785Z,98041.17
2023-04-10T06:04:35.500Z,98031.92
2023-04-10T06:07:04.635Z,98034.67
2023-04-10T06:09:52.732Z,98029.41
2023-04-10T06:12:21.040Z,98025.70
2023-04-10T06:14:49.897Z,98023.22
2023-04-10T06:17:21.977Z,98020.66
2023-04-10T06:19:59.589Z,98019.04
2023-04-10T06:22:29.047Z,98012.23
2023-04-10T06:24:57.428Z,98016.20
2023-04-10T06:27:29.091Z,98014.05
2023-04-10T06:29:57.713Z,98011.63
2023-04-10T06:32:26.182Z,98014.65
2023-04-10T06:34:54.483Z,98014.29
2023-04-10T06:37:31.396Z,98016.48
2023-04-10T06:40:08.043Z,98013.66
2023-04-10T06:42:38.819Z,98008.02
2023-04-10T06:45:21.290Z,98005.45
2023-04-10T06:47:49.716Z,98002.05
2023-04-10T06:50:19.652Z,97999.35
2023-04-10T06:52:48.493Z,97996.20
2023-04-10T06:55:17.204Z,97996.42
2023-04-10T06:57:45.745Z,97990.54
2023-04-10T07:00:14.410Z,97989.48
2023-04-10T07:02:43.389Z,97988.31
2023-04-10T07:05:11.818Z,97985.80
2023-04-10T07:07:43.200Z,97985.20
2023-04-10T07:10:13.521Z,97986.29
2023-04-10T07:12:43.844Z,97984.50
2023-04-10T07:15:13.133Z,97985.07
2023-04-10T07:17:41.427Z,97983.48
2023-04-10T07:20:11.272Z,97982.03
2023-04-10T07:22:39.856Z,97975.02
2023-04-10T07:25:08.638Z,97978.26
2023-04-10T07:27:36.880Z,97974.01
2023-04-10T07:30:05.515Z,97977.63
2023-04-10T07:32:35.067Z,97975.73
2023-04-10T07:35:03.560Z,97971.55
2023-04-10T07:37:31.764Z,97966.17
2023-04-10T07:40:03.384Z,97965.60
2023-04-10T07:42:31.926Z,97967.74
2023-04-10T07:45:00.274Z,97965.89
2023-04-10T07:47:29.186Z,97961.67
2023-04-10T07:49:57.781Z,97961.00
2023-04-10T07:52:26.874Z,97958.09
2023-04-10T07:54:56.269Z,97950.08
2023-04-10T07:57:26.855Z,97952.65
2023-04-10T07:59:59.300Z,97955.54
2023-04-10T08:02:27.990Z,97954.75
2023-04-10T08:04:56.617Z,97950.73
2023-04-10T08:07:25.063Z,97945.45
2023-04-10T08:09:54.493Z,97945.83
2023-04-10T08:12:23.993Z,97942.58
2023-04-10T08:14:51.990Z,97935.91
2023-04-10T08:17:21.048Z,97938.67
2023-04-10T08:19:50.181Z,97937.64
2023-04-10T08:22:18.871Z,97937.38
2023-04-10T08:24:47.238Z,97931.91
2023-04-10T08:27:16.566Z,97932.64
2023-04-10T08:29:44.999Z,97928.23
2023-04-10T08:32:14.694Z,97927.27
2023-04-10T08:34:47.130Z,97924.77
2023-04-10T08:37:15.910Z,97923.45
2023-04-10T08:39:44.927Z,97923.05
2023-04-10T08:42:13.885Z,97922.31
2023-04-10T08:44:42.070Z,97917.83
2023-04-10T08:47:10.754Z,97913.66
2023-04-10T08:49:57.457Z,97913.44
2023-04-10T08:52:26.538Z,97909.94
2023-04-10T08:54:57.516Z,97907.45
2023-04-10T08:57:27.554Z,97900.48
2023-04-10T08:59:56.450Z,97899.98
2023-04-10T09:02:26.184Z,97905.34
2023-04-10T09:04:55.989Z,97899.06
2023-04-10T09:07:26.691Z,97899.91
2023-04-10T09:09:58.924Z,97894.70
2023-04-10T09:12:29.481Z,97890.04
2023-04-10T09:14:57.842Z,97899.54
2023-04-10T09:17:26.133Z,97898.55
2023-04-10T09:20:00.761Z,97896.31
2023-04-10T09:22:33.980Z,97890.83
2023-04-10T09:25:04.592Z,97886.41
2023-04-10T09:27:35.669Z,97888.73
2023-04-10T09:30:05.818Z,97894.98
2023-04-10T09:32:43.146Z,97886.89
2023-04-10T09:35:16.672Z,97879.25
2023-04-10T09:37:47.140Z,97877.03
2023-04-10T09:40:24.435Z,97877.14
2023-04-10T09:42:56.061Z,97884.95
2023-04-10T09:45:27.347Z,97876.73
2023-04-10T09:48:08.965Z,97868.74
2023-04-10T09:50:40.416Z,97876.19
2023-04-10T09:53:10.887Z,97875.10
2023-04-10T09:55:39.926Z,97874.77
2023-04-10T09:58:08.607Z,97873.31
2023-04-10T10:00:41.630Z,97869.64
2023-04-10T10:03:12.411Z,97867.98
2023-04-10T10:05:46.856Z,97866.69
2023-04-10T10:08:16.853Z,97870.01
2023-04-10T10:10:51.916Z,97864.94
2023-04-10T10:13:32.077Z,97863.10
2023-04-10T10:16:18.070Z,97854.80
2023-04-10T10:19:11.385Z,97849.10
2023-04-10T10:21:43.623Z,97842.80
2023-04-10T10:24:12.743Z,97841.67
2023-04-10T10:26:42.098Z,97841.86
2023-04-10T10:29:14.226Z,97837.56
2023-04-10T10:31:43.284Z,97832.81
2023-04-10T10:34:11.576Z,97830.84
2023-04-10T10:36:42.803Z,97832.16
2023-04-10T10:39:33.351Z,97830.98
2023-04-10T10:42:28.012Z,97830.52
2023-04-10T10:45:11.309Z,97825.91
2023-04-10T10:47:47.356Z,97823.09
2023-04-10T10:50:23.435Z,97814.34
2023-04-10T10:52:57.455Z,97816.31
2023-04-10T10:55:38.935Z,97818.86
2023-04-10T10:58:08.383Z,97820.07
2023-04-10T11:00:55.545Z,97820.11
2023-04-10T11:03:30.486Z,97817.52
2023-04-10T11:06:16.986Z,97820.48
2023-04-10T11:08:47.385Z,97813.63
2023-04-10T11:11:29.844Z,97810.84
2023-04-10T11:14:01.491Z,97809.13
2023-04-10T11:16:41.513Z,97809.48
2023-04-10T11:19:16.401Z,97802.62
2023-04-10T11:22:09.097Z,97806.91
2023-04-10T11:25:00.961Z,97804.63
2023-04-10T11:27:49.538Z,97803.31
2023-04-10T11:30:37.222Z,97790.31
2023-04-10T11:33:05.762Z,97790.52
2023-04-10T11:35:34.553Z,97793.86
2023-04-10T11:38:18.315Z,97786.53
2023-04-10T11:41:07.040Z,97786.23
2023-04-10T11:43:35.959Z,97788.97
2023-04-10T11:46:08.464Z,97782.70
2023-04-10T11:48:37.786Z,97780.04
2023-04-10T11:51:11.018Z,97778.39
2023-04-10T11:53:45.350Z,97771.91
2023-04-10T11:56:22.160Z,97768.29
2023-04-10T11:58:54.033Z,97767.06
2023-04-10T12:01:23.483Z,97767.77
2023-04-10T12:03:52.119Z,97763.98
2023-04-10T12:06:22.974Z,97755.07
2023-04-10T12:08:52.022Z,97747.64
2023-04-10T12:11:25.744Z,97748.02
2023-04-10T12:13:55.483Z,97751.17
2023-04-10T12:16:25.475Z,97752.14
2023-04-10T12:18:54.189Z,97747.48
2023-04-10T12:21:22.745Z,97753.45
2023-04-10T12:23:53.208Z,97749.95
2023-04-10T12:26:22.127Z,97741.71
2023-04-10T12:28:57.513Z,97748.96
2023-04-10T12:31:34.676Z,97741.36
2023-04-10T12:34:05.485Z,97739.10
2023-04-10T12:36:35.301Z,97734.73
2023-04-10T12:39:04.738Z,97733.45
2023-04-10T12:41:34.411Z,97730.33
2023-04-10T12:44:13.904Z,97723.79
2023-04-10T12:46:43.469Z,97721.64
2023-04-10T12:49:21.465Z,97722.71
2023-04-10T12:51:51.563Z,97716.82
2023-04-10T12:54:34.126Z,97715.96
2023-04-10T12:57:04.290Z,97716.09
2023-04-10T12:59:32.984Z,97713.59
2023-04-10T13:02:03.899Z,97708.32
2023-04-10T13:04:32.776Z,97704.91
2023-04-10T13:07:02.160Z,97701.80
2023-04-10T13:09:31.679Z,97698.98
2023-04-10T13:11:59.758Z,97699.02
2023-04-10T13:14:28.034Z,97696.55
2023-04-10T13:16:56.172Z,97692.22
2023-04-10T13:19:24.287Z,97693.77
2023-04-10T13:21:52.650Z,97689.05
2023-04-10T13:24:21.010Z,97689.05
2023-04-10T13:26:49.246Z,97685.05
2023-04-10T13:29:17.598Z,97685.72
2023-04-10T13:31:45.792Z,97684.77
2023-04-10T13:34:14.195Z,97683.91
2023-04-10T13:36:42.754Z,97681.48
2023-04-10T13:39:11.183Z,97679.56
2023-04-10T13:41:39.453Z,97670.11
2023-04-10T13:44:07.708Z,97671.20
2023-04-10T13:46:35.774Z,97672.21
2023-04-10T13:49:05.640Z,97671.61
2023-04-10T13:51:33.912Z,97669.92
2023-04-10T13:54:04.962Z,97675.25
2023-04-10T13:56:33.382Z,97668.79
2023-04-10T13:59:01.703Z,97661.07
2023-04-10T14:01:29.984Z,97659.77
2023-04-10T14:03:58.542Z,97661.11
2023-04-10T14:06:27.402Z,97660.16
2023-04-10T14:08:55.918Z,97655.81
2023-04-10T14:11:24.219Z,97650.52
2023-04-10T14:13:52.570Z,97652.94
2023-04-10T14:16:21.044Z,97650.42
2023-04-10T14:18:50.353Z,97650.45
2023-04-10T14:21:20.571Z,97650.71
2023-04-10T14:23:49.535Z,97647.26
2023-04-10T14:26:18.664Z,97646.25
2023-04-10T14:28:47.168Z,97649.13
2023-04-10T14:31:16.719Z,97649.92
2023-04-10T14:33:44.901Z,97649.11
2023-04-10T14:36:13.126Z,97647.85
2023-04-10T14:38:41.394Z,97644.63
2023-04-10T14:41:09.929Z,97643.81
2023-04-10T14:43:39.348Z,97641.27
2023-04-10T14:46:07.744Z,97641.46
2023-04-10T14:48:36.565Z,97640.65
2023-04-10T14:51:10.278Z,97641.88
2023-04-10T14:53:39.542Z,97636.64
2023-04-10T14:56:15.092Z,97634.90
2023-04-10T14:58:43.971Z,97638.93
2023-04-10T15:01:13.363Z,97636.61
2023-04-10T15:03:42.276Z,97636.92
2023-04-10T15:06:10.628Z,97637.83
2023-04-10T15:08:38.651Z,97633.55
2023-04-10T15:11:07.996Z,97632.39
2023-04-10T15:13:38.280Z,97631.48
2023-04-10T15:16:08.165Z,97624.88
2023-04-10T15:18:36.148Z,97618.00
2023-04-10T15:21:04.865Z,97618.54
2023-04-10T15:23:33.798Z,97614.70
2023-04-10T15:26:03.441Z,97617.43
2023-04-10T15:28:31.837Z,97614.94
2023-04-10T15:31:00.679Z,97612.83
2023-04-10T15:33:31.943Z,97615.52
2023-04-10T15:36:00.704Z,97611.95
2023-04-10T15:38:29.188Z,97609.98
2023-04-10T15:40:57.980Z,97614.08
2023-04-10T15:43:26.250Z,97614.70
2023-04-10T15:45:59.041Z,97611.13
2023-04-10T15:48:28.989Z,97609.83
2023-04-10T15:50:57.125Z,97605.75
2023-04-10T15:53:25.554Z,97604.06
2023-04-10T15:55:54.798Z,97605.93
2023-04-10T15:58:23.142Z,97603.21
2023-04-10T16:00:51.352Z,97603.95
2023-04-10T16:03:19.448Z,97604.49
2023-04-10T16:05:47.774Z,97602.50
2023-04-10T16:08:16.692Z,97604.55
2023-04-10T16:10:44.780Z,97601.31
2023-04-10T16:13:13.122Z,97605.94
2023-04-10T16:15:41.395Z,97605.41
2023-04-10T16:18:09.685Z,97607.52
2023-04-10T16:20:38.301Z,97608.02
2023-04-10T16:23:06.454Z,97610.23
2023-04-10T16:25:34.726Z,97607.79
2023-04-10T16:28:02.914Z,97608.39
2023-04-10T16:30:32.124Z,97609.15
2023-04-10T16:33:01.259Z,97609.80
2023-04-10T16:35:29.490Z,97610.48
2023-04-10T16:37:57.528Z,97612.23
2023-04-10T16:40:32.475Z,97610.33
2023-04-10T16:43:02.000Z,97610.40
2023-04-10T16:45:30.581Z,97610.20
2023-04-10T16:47:58.643Z,97609.38
2023-04-10T16:50:26.699Z,97608.19
2023-04-10T16:52:54.672Z,97610.82
2023-04-10T16:55:22.970Z,97613.05
2023-04-10T16:57:51.813Z,97618.84
2023-04-10T17:00:22.207Z,97623.41
2023-04-10T17:02:52.866Z,97625.52
2023-04-10T17:05:21.264Z,97624.20
2023-04-10T17:07:49.704Z,97626.61
2023-04-10T17:10:20.351Z,97630.80
2023-04-10T17:12:48.451Z,97630.14
2023-04-10T17:15:17.981Z,97632.77
2023-04-10T17:17:47.498Z,97636.46
2023-04-10T17:20:15.737Z,97637.23
2023-04-10T17:22:47.418Z,97635.09
2023-04-10T17:25:15.722Z,97635.35
2023-04-10T17:27:45.768Z,97640.79
2023-04-10T17:30:14.228Z,97642.01
2023-04-10T17:32:43.413Z,97643.07
2023-04-10T17:35:11.732Z,97644.65
2023-04-10T17:37:39.810Z,97643.58
2023-04-10T17:40:09.020Z,97645.11
2023-04-10T17:42:37.055Z,97643.60
2023-04-10T17:45:05.762Z,97646.19
2023-04-10T17:47:35.050Z,97645.79
2023-04-10T17:50:04.382Z,97645.98
2023-04-10T17:52:32.746Z,97650.92
2023-04-10T17:55:02.230Z,97657.15
2023-04-10T17:57:30.734Z,97658.64
2023-04-10T17:59:58.718Z,97662.44
2023-04-10T18:02:26.797Z,97662.46
2023-04-10T18:04:56.466Z,97668.70
2023-04-10T18:07:25.218Z,97669.38
2023-04-10T18:09:55.698Z,97667.71
2023-04-10T18:12:23.795Z,97667.50
2023-04-10T18:14:51.920Z,97672.89
2023-04-10T18:17:20.655Z,97674.17
2023-04-10T18:19:51.575Z,97678.91
2023-04-10T18:22:19.611Z,97679.05
2023-04-10T18:24:51.626Z,97681.65
2023-04-10T18:27:22.126Z,97685.34
2023-04-10T18:29:52.555Z,97690.55
2023-04-10T18:32:20.623Z,97693.84
2023-04-10T18:34:49.859Z,97694.45
2023-04-10T18:37:17.918Z,97696.03
2023-04-10T18:39:46.007Z,97700.15
2023-04-10T18:42:14.157Z,97698.86
2023-04-10T18:44:42.266Z,97701.73
2023-04-10T18:47:11.803Z,97702.10
2023-04-10T18:49:40.757Z,97701.41
2023-04-10T18:52:08.712Z,97698.55
2023-04-10T18:54:36.872Z,97699.67
2023-04-10T18:57:05.471Z,97698.56
2023-04-10T18:59:33.552Z,97700.98
2023-04-10T19:02:02.052Z,97706.59
2023-04-10T19:04:30.848Z,97703.04
2023-04-10T19:06:58.962Z,97700.34
2023-04-10T19:09:27.169Z,97701.13
2023-04-10T19:11:56.395Z,97705.35
2023-04-10T19:14:24.818Z,97701.04
2023-04-10T19:16:53.305Z,97704.65
2023-04-10T19:19:21.588Z,97707.23
2023-04-10T19:21:49.666Z,97713.06
2023-04-10T19:24:17.838Z,97709.34
2023-04-10T19:26:46.016Z,97709.97
2023-04-10T19:29:14.147Z,97710.80
2023-04-10T19:31:42.261Z,97715.30
2023-04-10T19:34:11.446Z,97713.91
2023-04-10T19:36:39.840Z,97711.59
2023-04-10T19:39:08.652Z,97713.13
2023-04-10T19:41:41.804Z,97710.17
2023-04-10T19:44:10.278Z,97714.87
2023-04-10T19:46:38.655Z,97711.79
2023-04-10T19:49:06.984Z,97712.35
2023-04-10T19:51:35.082Z,97714.02
2023-04-10T19:54:03.607Z,97716.70
2023-04-10T19:56:32.034Z,97712.33
2023-04-10T19:59:00.695Z,97713.92
2023-04-10T20:01:29.524Z,97708.48
2023-04-10T20:03:57.825Z,97710.98
2023-04-10T20:06:27.258Z,97710.73
2023-04-10T20:08:55.640Z,97709.22
2023-04-10T20:11:30.441Z,97704.83
2023-04-10T20:13:58.576Z,97705.92
2023-04-10T20:16:27.049Z,97707.33
2023-04-10T20:18:55.729Z,97701.16
2023-04-10T20:21:23.962Z,97700.52
2023-04-10T20:23:52.031Z,97699.59
2023-04-10T20:26:21.550Z,97699.39
2023-04-10T20:28:49.616Z,97700.01
2023-04-10T20:31:17.737Z,97698.45
2023-04-10T20:33:46.023Z,97693.42
2023-04-10T20:36:14.139Z,97695.89
2023-04-10T20:38:42.420Z,97699.23
2023-04-10T20:41:10.521Z,97697.94
2023-04-10T20:43:38.553Z,97696.10
2023-04-10T20:46:08.084Z,97699.02
2023-04-10T20:48:37.433Z,97694.81
2023-04-10T20:51:06.142Z,97691.98
2023-04-10T20:53:34.229Z,97690.94
2023-04-10T20:56:04.923Z,97688.63
2023-04-10T20:58:34.286Z,97686.75
2023-04-10T21:01:02.562Z,97691.33
2023-04-10T21:03:31.730Z,97690.68
2023-04-10T21:06:02.621Z,97688.73
2023-04-10T21:08:30.802Z,97682.74
2023-04-10T21:11:01.674Z,97686.70
2023-04-10T21:13:29.791Z,97685.98
2023-04-10T21:15:57.862Z,97685.00
2023-04-10T21:18:26.325Z,97678.64
2023-04-10T21:20:54.536Z,97680.84
2023-04-10T21:23:22.620Z,97680.08
2023-04-10T21:25:54.986Z,97675.17
2023-04-10T21:28:23.167Z,97675.42
2023-04-10T21:30:51.168Z,97674.40
2023-04-10T21:33:19.364Z,97673.05
2023-04-10T21:35:48.018Z,97671.19
2023-04-10T21:38:16.211Z,97669.30
2023-04-10T21:40:54.534Z,97667.89
2023-04-10T21:43:22.787Z,97666.07
2023-04-10T21:45:50.991Z,97664.30
2023-04-10T21:48:22.501Z,97665.38
2023-04-10T21:50:51.361Z,97661.12
2023-04-10T21:53:19.621Z,97658.37
2023-04-10T21:55:47.649Z,97657.80
2023-04-10T21:58:15.994Z,97658.84
2023-04-10T22:00:47.157Z,97659.55
2023-04-10T22:03:16.512Z,97658.98
2023-04-10T22:05:44.755Z,97657.67
2023-04-10T22:08:13.900Z,97656.61
2023-04-10T22:10:44.937Z,97659.66
2023-04-10T22:13:27.487Z,97660.03
2023-04-10T22:16:00.062Z,97656.28
2023-04-10T22:18:28.154Z,97655.23
2023-04-10T22:20:56.156Z,97657.81
2023-04-10T22:23:24.256Z,97658.81
2023-04-10T22:25:52.376Z,97652.34
2023-04-10T22:28:20.337Z,97646.38
2023-04-10T22:30:48.359Z,97645.13
2023-04-10T22:33:16.379Z,97647.33
2023-04-10T22:35:45.325Z,97643.48
2023-04-10T22:38:13.376Z,97638.40
2023-04-10T22:40:41.368Z,97638.77
2023-04-10T22:43:10.839Z,97638.63
2023-04-10T22:45:42.408Z,97638.34
2023-04-10T22:48:10.503Z,97636.02
2023-04-10T22:50:38.697Z,97638.46
2023-04-10T22:53:06.652Z,97641.52
2023-04-10T22:55:36.977Z,97637.79
2023-04-10T22:58:05.891Z,97634.86
2023-04-10T23:00:34.437Z,97634.65
2023-04-10T23:03:02.706Z,97631.64
2023-04-10T23:05:33.006Z,97630.73
2023-04-10T23:08:01.130Z,97633.17
2023-04-10T23:10:29.174Z,97632.53
2023-04-10T23:12:57.134Z,97627.36
2023-04-10T23:15:25.212Z,97625.05
2023-04-10T23:17:53.465Z,97622.90
2023-04-10T23:20:21.743Z,97621.23
2023-04-10T23:22:49.711Z,97616.71
2023-04-10T23:25:17.822Z,97612.40
2023-04-10T23:27:45.823Z,97607.83
2023-04-10T23:30:14.006Z,97609.16
2023-04-10T23:32:41.992Z,97607.06
2023-04-10T23:35:10.000Z,97606.73
2023-04-10T23:37:37.955Z,97606.54
2023-04-10T23:40:06.572Z,97605.52
2023-04-10T23:42:34.546Z,97601.41
2023-04-10T23:45:02.637Z,97596.67
2023-04-10T23:47:30.761Z,97592.38
2023-04-10T23:49:58.821Z,97588.55
2023-04-10T23:52:26.747Z,97593.84
2023-04-10T23:55:00.254Z,97592.21
2023-04-10T23:57:28.226Z,97596.66
2023-04-10T23:59:56.211Z,97597.59
